sensor_id;sensor_type;location;lat;lon;timestamp;temperature;humidity
37788;DHT22;23627;53.302;-6.362;2023-04-28T00:02:18;12.60;99.90
37788;DHT22;23627;53.302;-6.362;2023-04-28T00:04:44;12.60;99.90
37788;DHT22;23627;53.302;-6.362;2023-04-28T00:07:10;12.60;99.90
37788;DHT22;23627;53.302;-6.362;2023-04-28T00:09:35;12.60;99.90
37788;DHT22;23627;53.302;-6.362;2023-04-28T00:12:01;12.60;99.90
37788;DHT22;23627;53.302;-6.362;2023-04-28T00:14:27;12.60;99.90
37788;DHT22;23627;53.302;-6.362;2023-04-28T00:16:53;12.50;99.90
37788;DHT22;23627;53.302;-6.362;2023-04-28T00:19:21;12.60;99.90
37788;DHT22;23627;53.302;-6.362;2023-04-28T00:21:47;12.60;99.90
37788;DHT22;23627;53.302;-6.362;2023-04-28T00:24:12;12.60;99.90
37788;DHT22;23627;53.302;-6.362;2023-04-28T00:26:38;12.50;99.90
37788;DHT22;23627;53.302;-6.362;2023-04-28T00:29:04;12.50;99.90
37788;DHT22;23627;53.302;-6.362;2023-04-28T00:31:29;12.50;99.90
37788;DHT22;23627;53.302;-6.362;2023-04-28T00:33:55;12.50;99.90
37788;DHT22;23627;53.302;-6.362;2023-04-28T00:36:21;12.50;99.90
37788;DHT22;23627;53.302;-6.362;2023-04-28T00:38:47;12.50;99.90
37788;DHT22;23627;53.302;-6.362;2023-04-28T00:41:12;12.50;99.90
37788;DHT22;23627;53.302;-6.362;2023-04-28T00:43:47;12.50;99.90
37788;DHT22;23627;53.302;-6.362;2023-04-28T00:46:26;12.50;99.90
37788;DHT22;23627;53.302;-6.362;2023-04-28T00:48:52;12.40;99.90
37788;DHT22;23627;53.302;-6.362;2023-04-28T00:51:18;12.50;99.90
37788;DHT22;23627;53.302;-6.362;2023-04-28T00:53:44;12.50;99.90
37788;DHT22;23627;53.302;-6.362;2023-04-28T00:56:10;12.50;99.90
37788;DHT22;23627;53.302;-6.362;2023-04-28T00:58:36;12.50;99.90
37788;DHT22;23627;53.302;-6.362;2023-04-28T01:01:03;12.50;99.90
37788;DHT22;23627;53.302;-6.362;2023-04-28T01:03:32;12.40;99.90
37788;DHT22;23627;53.302;-6.362;2023-04-28T01:05:59;12.40;99.90
37788;DHT22;23627;53.302;-6.362;2023-04-28T01:08:29;12.40;99.90
37788;DHT22;23627;53.302;-6.362;2023-04-28T01:10:55;12.40;99.90
37788;DHT22;23627;53.302;-6.362;2023-04-28T01:13:21;12.40;99.90
37788;DHT22;23627;53.302;-6.362;2023-04-28T01:15:47;12.40;99.90
37788;DHT22;23627;53.302;-6.362;2023-04-28T01:18:13;12.40;99.90
37788;DHT22;23627;53.302;-6.362;2023-04-28T01:20:40;12.40;99.90
37788;DHT22;23627;53.302;-6.362;2023-04-28T01:23:14;12.40;99.90
37788;DHT22;23627;53.302;-6.362;2023-04-28T01:25:41;12.30;99.90
37788;DHT22;23627;53.302;-6.362;2023-04-28T01:28:07;12.30;99.90
37788;DHT22;23627;53.302;-6.362;2023-04-28T01:30:33;12.40;99.90
37788;DHT22;23627;53.302;-6.362;2023-04-28T01:33:00;12.30;99.90
37788;DHT22;23627;53.302;-6.362;2023-04-28T01:35:26;12.30;99.90
37788;DHT22;23627;53.302;-6.362;2023-04-28T01:37:52;12.30;99.90
37788;DHT22;23627;53.302;-6.362;2023-04-28T01:40:18;12.30;99.90
37788;DHT22;23627;53.302;-6.362;2023-04-28T01:42:44;12.30;99.90
37788;DHT22;23627;53.302;-6.362;2023-04-28T01:45:10;12.30;99.90
37788;DHT22;23627;53.302;-6.362;2023-04-28T01:47:35;12.30;99.90
37788;DHT22;23627;53.302;-6.362;2023-04-28T01:50:01;12.30;99.90
37788;DHT22;23627;53.302;-6.362;2023-04-28T01:52:27;12.30;99.90
37788;DHT22;23627;53.302;-6.362;2023-04-28T01:54:53;12.30;99.90
37788;DHT22;23627;53.302;-6.362;2023-04-28T01:57:19;12.30;99.90
37788;DHT22;23627;53.302;-6.362;2023-04-28T01:59:45;12.30;99.90
37788;DHT22;23627;53.302;-6.362;2023-04-28T02:02:11;12.30;99.90
37788;DHT22;23627;53.302;-6.362;2023-04-28T02:04:40;12.30;99.90
37788;DHT22;23627;53.302;-6.362;2023-04-28T02:07:06;12.20;99.90
37788;DHT22;23627;53.302;-6.362;2023-04-28T02:09:32;12.30;99.90
37788;DHT22;23627;53.302;-6.362;2023-04-28T02:11:58;12.30;99.90
37788;DHT22;23627;53.302;-6.362;2023-04-28T02:14:24;12.30;99.90
37788;DHT22;23627;53.302;-6.362;2023-04-28T02:16:51;12.30;99.90
37788;DHT22;23627;53.302;-6.362;2023-04-28T02:19:17;12.20;99.90
37788;DHT22;23627;53.302;-6.362;2023-04-28T02:21:42;12.20;99.90
37788;DHT22;23627;53.302;-6.362;2023-04-28T02:24:08;12.20;99.90
37788;DHT22;23627;53.302;-6.362;2023-04-28T02:26:34;12.20;99.90
37788;DHT22;23627;53.302;-6.362;2023-04-28T02:29:00;12.20;99.90
37788;DHT22;23627;53.302;-6.362;2023-04-28T02:31:28;12.20;99.90
37788;DHT22;23627;53.302;-6.362;2023-04-28T02:33:54;12.20;99.90
37788;DHT22;23627;53.302;-6.362;2023-04-28T02:36:20;12.20;99.90
37788;DHT22;23627;53.302;-6.362;2023-04-28T02:38:46;12.10;99.90
37788;DHT22;23627;53.302;-6.362;2023-04-28T02:41:12;12.20;99.90
37788;DHT22;23627;53.302;-6.362;2023-04-28T02:43:39;12.20;99.90
37788;DHT22;23627;53.302;-6.362;2023-04-28T02:46:05;12.20;99.90
37788;DHT22;23627;53.302;-6.362;2023-04-28T02:48:31;12.20;99.90
37788;DHT22;23627;53.302;-6.362;2023-04-28T02:51:00;12.10;99.90
37788;DHT22;23627;53.302;-6.362;2023-04-28T02:53:26;12.10;99.90
37788;DHT22;23627;53.302;-6.362;2023-04-28T02:55:51;12.10;99.90
37788;DHT22;23627;53.302;-6.362;2023-04-28T02:58:17;12.10;99.90
37788;DHT22;23627;53.302;-6.362;2023-04-28T03:00:43;12.10;99.90
37788;DHT22;23627;53.302;-6.362;2023-04-28T03:03:09;12.10;99.90
37788;DHT22;23627;53.302;-6.362;2023-04-28T03:05:35;12.10;99.90
37788;DHT22;23627;53.302;-6.362;2023-04-28T03:08:01;12.10;99.90
37788;DHT22;23627;53.302;-6.362;2023-04-28T03:10:26;12.10;99.90
37788;DHT22;23627;53.302;-6.362;2023-04-28T03:12:52;12.00;99.90
37788;DHT22;23627;53.302;-6.362;2023-04-28T03:15:18;12.00;99.90
37788;DHT22;23627;53.302;-6.362;2023-04-28T03:17:44;12.00;99.90
37788;DHT22;23627;53.302;-6.362;2023-04-28T03:20:10;12.00;99.90
37788;DHT22;23627;53.302;-6.362;2023-04-28T03:22:36;12.00;99.90
37788;DHT22;23627;53.302;-6.362;2023-04-28T03:25:02;12.00;99.90
37788;DHT22;23627;53.302;-6.362;2023-04-28T03:27:27;12.00;99.90
37788;DHT22;23627;53.302;-6.362;2023-04-28T03:29:53;11.90;99.90
37788;DHT22;23627;53.302;-6.362;2023-04-28T03:32:19;11.90;99.90
37788;DHT22;23627;53.302;-6.362;2023-04-28T03:34:45;11.90;99.90
37788;DHT22;23627;53.302;-6.362;2023-04-28T03:37:10;11.90;99.90
37788;DHT22;23627;53.302;-6.362;2023-04-28T03:39:36;11.90;99.90
37788;DHT22;23627;53.302;-6.362;2023-04-28T03:42:02;11.90;99.90
37788;DHT22;23627;53.302;-6.362;2023-04-28T03:44:28;11.90;99.90
37788;DHT22;23627;53.302;-6.362;2023-04-28T03:46:54;11.80;99.90
37788;DHT22;23627;53.302;-6.362;2023-04-28T03:49:20;11.90;99.90
37788;DHT22;23627;53.302;-6.362;2023-04-28T03:51:45;11.90;99.90
37788;DHT22;23627;53.302;-6.362;2023-04-28T03:54:12;11.90;99.90
37788;DHT22;23627;53.302;-6.362;2023-04-28T03:56:38;11.80;99.90
37788;DHT22;23627;53.302;-6.362;2023-04-28T03:59:03;11.90;99.90
37788;DHT22;23627;53.302;-6.362;2023-04-28T04:01:29;11.90;99.90
37788;DHT22;23627;53.302;-6.362;2023-04-28T04:03:55;11.80;99.90
37788;DHT22;23627;53.302;-6.362;2023-04-28T04:06:21;11.80;99.90
37788;DHT22;23627;53.302;-6.362;2023-04-28T04:08:47;11.80;99.90
37788;DHT22;23627;53.302;-6.362;2023-04-28T04:11:13;11.80;99.90
37788;DHT22;23627;53.302;-6.362;2023-04-28T04:13:38;11.80;99.90
37788;DHT22;23627;53.302;-6.362;2023-04-28T04:16:04;11.80;99.90
37788;DHT22;23627;53.302;-6.362;2023-04-28T04:18:31;11.80;99.90
37788;DHT22;23627;53.302;-6.362;2023-04-28T04:20:56;11.80;99.90
37788;DHT22;23627;53.302;-6.362;2023-04-28T04:23:22;11.80;99.90
37788;DHT22;23627;53.302;-6.362;2023-04-28T04:25:48;11.80;99.90
37788;DHT22;23627;53.302;-6.362;2023-04-28T04:28:14;11.80;99.90
37788;DHT22;23627;53.302;-6.362;2023-04-28T04:30:40;11.80;99.90
37788;DHT22;23627;53.302;-6.362;2023-04-28T04:33:06;11.80;99.90
37788;DHT22;23627;53.302;-6.362;2023-04-28T04:35:33;11.80;99.90
37788;DHT22;23627;53.302;-6.362;2023-04-28T04:37:59;11.80;99.90
37788;DHT22;23627;53.302;-6.362;2023-04-28T04:40:25;11.80;99.90
37788;DHT22;23627;53.302;-6.362;2023-04-28T04:42:51;11.80;99.90
37788;DHT22;23627;53.302;-6.362;2023-04-28T04:45:17;11.80;99.90
37788;DHT22;23627;53.302;-6.362;2023-04-28T04:47:43;11.80;99.90
37788;DHT22;23627;53.302;-6.362;2023-04-28T04:50:10;11.80;99.90
37788;DHT22;23627;53.302;-6.362;2023-04-28T04:52:35;11.80;99.90
37788;DHT22;23627;53.302;-6.362;2023-04-28T04:55:02;11.80;99.90
37788;DHT22;23627;53.302;-6.362;2023-04-28T04:57:27;11.70;99.90
37788;DHT22;23627;53.302;-6.362;2023-04-28T04:59:53;11.70;99.90
37788;DHT22;23627;53.302;-6.362;2023-04-28T05:02:19;11.70;99.90
37788;DHT22;23627;53.302;-6.362;2023-04-28T05:04:45;11.70;99.90
37788;DHT22;23627;53.302;-6.362;2023-04-28T05:07:10;11.70;99.90
37788;DHT22;23627;53.302;-6.362;2023-04-28T05:09:37;11.70;99.90
37788;DHT22;23627;53.302;-6.362;2023-04-28T05:12:03;11.70;99.90
37788;DHT22;23627;53.302;-6.362;2023-04-28T05:14:28;11.70;99.90
37788;DHT22;23627;53.302;-6.362;2023-04-28T05:16:54;11.70;99.90
37788;DHT22;23627;53.302;-6.362;2023-04-28T05:19:20;11.70;99.90
37788;DHT22;23627;53.302;-6.362;2023-04-28T05:21:46;11.70;99.90
37788;DHT22;23627;53.302;-6.362;2023-04-28T05:24:17;11.70;99.90
37788;DHT22;23627;53.302;-6.362;2023-04-28T05:26:42;11.70;99.90
37788;DHT22;23627;53.302;-6.362;2023-04-28T05:29:08;11.80;99.90
37788;DHT22;23627;53.302;-6.362;2023-04-28T05:31:34;11.80;99.90
37788;DHT22;23627;53.302;-6.362;2023-04-28T05:34:00;11.80;99.90
37788;DHT22;23627;53.302;-6.362;2023-04-28T05:36:25;11.80;99.90
37788;DHT22;23627;53.302;-6.362;2023-04-28T05:38:51;11.80;99.90
37788;DHT22;23627;53.302;-6.362;2023-04-28T05:41:17;11.90;99.90
37788;DHT22;23627;53.302;-6.362;2023-04-28T05:43:43;11.80;99.90
37788;DHT22;23627;53.302;-6.362;2023-04-28T05:46:08;11.90;99.90
37788;DHT22;23627;53.302;-6.362;2023-04-28T05:48:34;11.90;99.90
37788;DHT22;23627;53.302;-6.362;2023-04-28T05:51:00;12.00;99.90
37788;DHT22;23627;53.302;-6.362;2023-04-28T05:53:26;12.00;99.90
37788;DHT22;23627;53.302;-6.362;2023-04-28T05:55:51;12.00;99.90
37788;DHT22;23627;53.302;-6.362;2023-04-28T05:58:17;12.10;99.90
37788;DHT22;23627;53.302;-6.362;2023-04-28T06:00:43;12.10;99.90
37788;DHT22;23627;53.302;-6.362;2023-04-28T06:03:09;12.10;99.90
37788;DHT22;23627;53.302;-6.362;2023-04-28T06:05:38;12.10;99.90
37788;DHT22;23627;53.302;-6.362;2023-04-28T06:08:04;12.20;99.90
37788;DHT22;23627;53.302;-6.362;2023-04-28T06:10:32;12.20;99.90
37788;DHT22;23627;53.302;-6.362;2023-04-28T06:12:58;12.30;99.90
37788;DHT22;23627;53.302;-6.362;2023-04-28T06:15:23;12.30;99.90
37788;DHT22;23627;53.302;-6.362;2023-04-28T06:17:49;12.30;99.90
37788;DHT22;23627;53.302;-6.362;2023-04-28T06:20:15;12.30;99.90
37788;DHT22;23627;53.302;-6.362;2023-04-28T06:22:41;12.30;99.90
37788;DHT22;23627;53.302;-6.362;2023-04-28T06:25:08;12.30;99.90
37788;DHT22;23627;53.302;-6.362;2023-04-28T06:27:34;12.30;99.90
37788;DHT22;23627;53.302;-6.362;2023-04-28T06:29:59;12.30;99.90
37788;DHT22;23627;53.302;-6.362;2023-04-28T06:32:25;12.40;99.90
37788;DHT22;23627;53.302;-6.362;2023-04-28T06:34:51;12.40;99.90
37788;DHT22;23627;53.302;-6.362;2023-04-28T06:37:16;12.50;99.90
37788;DHT22;23627;53.302;-6.362;2023-04-28T06:39:43;12.50;99.90
37788;DHT22;23627;53.302;-6.362;2023-04-28T06:42:09;12.60;99.90
37788;DHT22;23627;53.302;-6.362;2023-04-28T06:44:34;12.60;99.90
37788;DHT22;23627;53.302;-6.362;2023-04-28T06:47:00;12.70;99.90
37788;DHT22;23627;53.302;-6.362;2023-04-28T06:49:26;12.70;99.90
37788;DHT22;23627;53.302;-6.362;2023-04-28T06:51:52;12.80;99.90
37788;DHT22;23627;53.302;-6.362;2023-04-28T06:54:18;12.80;99.90
37788;DHT22;23627;53.302;-6.362;2023-04-28T06:56:43;12.90;99.90
37788;DHT22;23627;53.302;-6.362;2023-04-28T06:59:09;12.90;99.90
37788;DHT22;23627;53.302;-6.362;2023-04-28T07:01:35;12.90;99.90
37788;DHT22;23627;53.302;-6.362;2023-04-28T07:04:01;13.00;99.90
37788;DHT22;23627;53.302;-6.362;2023-04-28T07:06:26;13.00;99.90
37788;DHT22;23627;53.302;-6.362;2023-04-28T07:08:53;13.00;99.90
37788;DHT22;23627;53.302;-6.362;2023-04-28T07:11:19;13.00;99.90
37788;DHT22;23627;53.302;-6.362;2023-04-28T07:13:44;13.00;99.90
37788;DHT22;23627;53.302;-6.362;2023-04-28T07:16:16;13.00;99.90
37788;DHT22;23627;53.302;-6.362;2023-04-28T07:18:42;12.90;99.90
37788;DHT22;23627;53.302;-6.362;2023-04-28T07:21:08;13.00;99.90
37788;DHT22;23627;53.302;-6.362;2023-04-28T07:23:33;12.90;99.90
37788;DHT22;23627;53.302;-6.362;2023-04-28T07:25:59;12.90;99.90
37788;DHT22;23627;53.302;-6.362;2023-04-28T07:28:25;12.90;99.90
37788;DHT22;23627;53.302;-6.362;2023-04-28T07:30:51;12.90;99.90
37788;DHT22;23627;53.302;-6.362;2023-04-28T07:33:17;12.90;99.90
37788;DHT22;23627;53.302;-6.362;2023-04-28T07:35:43;12.90;99.90
37788;DHT22;23627;53.302;-6.362;2023-04-28T07:38:08;12.90;99.90
37788;DHT22;23627;53.302;-6.362;2023-04-28T07:40:34;13.00;99.90
37788;DHT22;23627;53.302;-6.362;2023-04-28T07:43:00;13.00;99.90
37788;DHT22;23627;53.302;-6.362;2023-04-28T07:45:25;13.00;99.90
37788;DHT22;23627;53.302;-6.362;2023-04-28T07:47:51;13.10;99.90
37788;DHT22;23627;53.302;-6.362;2023-04-28T07:50:17;13.10;99.90
37788;DHT22;23627;53.302;-6.362;2023-04-28T07:52:43;13.20;99.90
37788;DHT22;23627;53.302;-6.362;2023-04-28T07:55:09;13.20;99.90
37788;DHT22;23627;53.302;-6.362;2023-04-28T07:57:35;13.30;99.90
37788;DHT22;23627;53.302;-6.362;2023-04-28T08:00:04;13.30;99.90
37788;DHT22;23627;53.302;-6.362;2023-04-28T08:02:30;13.30;99.90
37788;DHT22;23627;53.302;-6.362;2023-04-28T08:04:56;13.30;99.90
37788;DHT22;23627;53.302;-6.362;2023-04-28T08:07:21;13.40;99.90
37788;DHT22;23627;53.302;-6.362;2023-04-28T08:09:47;13.50;99.90
37788;DHT22;23627;53.302;-6.362;2023-04-28T08:12:13;13.50;99.90
37788;DHT22;23627;53.302;-6.362;2023-04-28T08:14:39;13.60;99.90
37788;DHT22;23627;53.302;-6.362;2023-04-28T08:17:05;13.60;99.90
37788;DHT22;23627;53.302;-6.362;2023-04-28T08:19:31;13.70;99.90
37788;DHT22;23627;53.302;-6.362;2023-04-28T08:21:57;13.70;99.90
37788;DHT22;23627;53.302;-6.362;2023-04-28T08:24:24;13.80;99.90
37788;DHT22;23627;53.302;-6.362;2023-04-28T08:26:51;13.90;99.90
37788;DHT22;23627;53.302;-6.362;2023-04-28T08:29:16;14.10;99.90
37788;DHT22;23627;53.302;-6.362;2023-04-28T08:31:42;14.20;99.90
37788;DHT22;23627;53.302;-6.362;2023-04-28T08:34:08;14.30;99.90
37788;DHT22;23627;53.302;-6.362;2023-04-28T08:36:34;14.40;99.90
37788;DHT22;23627;53.302;-6.362;2023-04-28T08:39:00;14.50;99.90
37788;DHT22;23627;53.302;-6.362;2023-04-28T08:41:31;14.60;99.90
37788;DHT22;23627;53.302;-6.362;2023-04-28T08:44:00;14.60;99.90
37788;DHT22;23627;53.302;-6.362;2023-04-28T08:46:26;14.70;99.90
37788;DHT22;23627;53.302;-6.362;2023-04-28T08:48:59;14.80;99.90
37788;DHT22;23627;53.302;-6.362;2023-04-28T08:51:33;14.90;99.90
37788;DHT22;23627;53.302;-6.362;2023-04-28T08:54:02;14.90;99.90
37788;DHT22;23627;53.302;-6.362;2023-04-28T08:56:32;15.00;99.90
37788;DHT22;23627;53.302;-6.362;2023-04-28T08:59:02;15.00;99.90
37788;DHT22;23627;53.302;-6.362;2023-04-28T09:01:31;15.00;99.90
37788;DHT22;23627;53.302;-6.362;2023-04-28T09:04:00;15.00;99.90
37788;DHT22;23627;53.302;-6.362;2023-04-28T09:06:35;15.10;99.90
37788;DHT22;23627;53.302;-6.362;2023-04-28T09:12:02;15.10;99.90
37788;DHT22;23627;53.302;-6.362;2023-04-28T09:14:31;15.20;99.90
37788;DHT22;23627;53.302;-6.362;2023-04-28T09:16:57;15.20;99.90
37788;DHT22;23627;53.302;-6.362;2023-04-28T09:19:24;15.20;99.90
37788;DHT22;23627;53.302;-6.362;2023-04-28T09:21:57;15.30;99.90
37788;DHT22;23627;53.302;-6.362;2023-04-28T09:24:37;15.40;99.90
37788;DHT22;23627;53.302;-6.362;2023-04-28T09:27:08;15.50;99.90
37788;DHT22;23627;53.302;-6.362;2023-04-28T09:29:51;15.60;99.90
37788;DHT22;23627;53.302;-6.362;2023-04-28T09:32:28;15.60;99.90
37788;DHT22;23627;53.302;-6.362;2023-04-28T09:35:00;15.70;99.90
37788;DHT22;23627;53.302;-6.362;2023-04-28T09:37:38;15.80;99.90
37788;DHT22;23627;53.302;-6.362;2023-04-28T09:40:24;15.80;99.90
37788;DHT22;23627;53.302;-6.362;2023-04-28T09:42:50;15.90;99.90
37788;DHT22;23627;53.302;-6.362;2023-04-28T09:45:15;16.00;99.90
37788;DHT22;23627;53.302;-6.362;2023-04-28T09:47:43;16.10;99.90
37788;DHT22;23627;53.302;-6.362;2023-04-28T09:50:12;16.20;99.90
37788;DHT22;23627;53.302;-6.362;2023-04-28T09:52:54;16.30;99.90
37788;DHT22;23627;53.302;-6.362;2023-04-28T09:55:21;16.30;99.90
37788;DHT22;23627;53.302;-6.362;2023-04-28T09:57:49;16.30;99.90
37788;DHT22;23627;53.302;-6.362;2023-04-28T10:00:17;16.30;99.90
37788;DHT22;23627;53.302;-6.362;2023-04-28T10:02:44;16.40;99.90
37788;DHT22;23627;53.302;-6.362;2023-04-28T10:05:15;16.40;99.90
37788;DHT22;23627;53.302;-6.362;2023-04-28T10:07:40;16.50;99.90
37788;DHT22;23627;53.302;-6.362;2023-04-28T10:10:09;16.50;99.90
37788;DHT22;23627;53.302;-6.362;2023-04-28T10:12:37;16.50;99.90
37788;DHT22;23627;53.302;-6.362;2023-04-28T10:15:03;16.50;99.90
37788;DHT22;23627;53.302;-6.362;2023-04-28T10:17:29;16.40;99.90
37788;DHT22;23627;53.302;-6.362;2023-04-28T10:19:55;16.40;99.90
37788;DHT22;23627;53.302;-6.362;2023-04-28T10:27:47;16.50;99.90
37788;DHT22;23627;53.302;-6.362;2023-04-28T10:30:19;16.60;99.90
37788;DHT22;23627;53.302;-6.362;2023-04-28T10:32:46;16.80;99.90
37788;DHT22;23627;53.302;-6.362;2023-04-28T10:38:06;16.90;99.90
37788;DHT22;23627;53.302;-6.362;2023-04-28T10:43:06;16.70;99.90
37788;DHT22;23627;53.302;-6.362;2023-04-28T10:48:20;16.40;99.90
37788;DHT22;23627;53.302;-6.362;2023-04-28T10:56:05;16.30;99.90
37788;DHT22;23627;53.302;-6.362;2023-04-28T10:58:44;16.20;99.90
37788;DHT22;23627;53.302;-6.362;2023-04-28T11:01:30;16.20;99.90
37788;DHT22;23627;53.302;-6.362;2023-04-28T11:04:08;16.30;99.90
37788;DHT22;23627;53.302;-6.362;2023-04-28T11:06:43;16.30;99.90
37788;DHT22;23627;53.302;-6.362;2023-04-28T11:14:31;16.50;99.90
37788;DHT22;23627;53.302;-6.362;2023-04-28T11:17:05;16.60;99.90
37788;DHT22;23627;53.302;-6.362;2023-04-28T11:19:38;16.70;99.90
37788;DHT22;23627;53.302;-6.362;2023-04-28T11:22:06;16.80;99.90
37788;DHT22;23627;53.302;-6.362;2023-04-28T11:27:48;16.90;99.90
37788;DHT22;23627;53.302;-6.362;2023-04-28T11:30:21;17.00;99.90
37788;DHT22;23627;53.302;-6.362;2023-04-28T11:32:48;17.10;99.90
37788;DHT22;23627;53.302;-6.362;2023-04-28T11:35:15;17.20;99.90
37788;DHT22;23627;53.302;-6.362;2023-04-28T11:37:40;17.20;99.90
37788;DHT22;23627;53.302;-6.362;2023-04-28T11:40:12;17.10;99.90
37788;DHT22;23627;53.302;-6.362;2023-04-28T11:42:47;17.00;99.90
37788;DHT22;23627;53.302;-6.362;2023-04-28T11:45:12;16.80;99.90
37788;DHT22;23627;53.302;-6.362;2023-04-28T11:47:38;16.80;99.90
37788;DHT22;23627;53.302;-6.362;2023-04-28T11:50:04;16.80;99.90
37788;DHT22;23627;53.302;-6.362;2023-04-28T11:52:30;16.90;99.90
37788;DHT22;23627;53.302;-6.362;2023-04-28T11:54:57;17.00;99.90
37788;DHT22;23627;53.302;-6.362;2023-04-28T11:57:24;17.10;99.90
37788;DHT22;23627;53.302;-6.362;2023-04-28T12:00:10;17.20;99.90
37788;DHT22;23627;53.302;-6.362;2023-04-28T12:02:36;17.30;99.90
37788;DHT22;23627;53.302;-6.362;2023-04-28T12:05:07;17.40;99.90
37788;DHT22;23627;53.302;-6.362;2023-04-28T12:07:43;17.40;99.90
37788;DHT22;23627;53.302;-6.362;2023-04-28T12:10:13;17.50;99.90
37788;DHT22;23627;53.302;-6.362;2023-04-28T12:12:43;17.50;99.90
37788;DHT22;23627;53.302;-6.362;2023-04-28T12:15:09;17.50;99.90
37788;DHT22;23627;53.302;-6.362;2023-04-28T12:17:38;17.60;99.90
37788;DHT22;23627;53.302;-6.362;2023-04-28T12:20:08;17.70;99.90
37788;DHT22;23627;53.302;-6.362;2023-04-28T12:22:47;17.70;99.90
37788;DHT22;23627;53.302;-6.362;2023-04-28T12:25:15;17.80;99.90
37788;DHT22;23627;53.302;-6.362;2023-04-28T12:28:04;17.80;99.90
37788;DHT22;23627;53.302;-6.362;2023-04-28T12:30:31;17.60;99.90
37788;DHT22;23627;53.302;-6.362;2023-04-28T12:32:57;17.70;99.90
37788;DHT22;23627;53.302;-6.362;2023-04-28T12:35:24;17.70;99.90
37788;DHT22;23627;53.302;-6.362;2023-04-28T12:37:51;17.80;99.90
37788;DHT22;23627;53.302;-6.362;2023-04-28T12:40:18;17.80;99.90
37788;DHT22;23627;53.302;-6.362;2023-04-28T12:42:44;17.90;99.90
37788;DHT22;23627;53.302;-6.362;2023-04-28T12:45:10;18.00;99.90
37788;DHT22;23627;53.302;-6.362;2023-04-28T12:47:36;18.00;99.90
37788;DHT22;23627;53.302;-6.362;2023-04-28T12:50:04;18.10;99.90
37788;DHT22;23627;53.302;-6.362;2023-04-28T12:52:30;18.10;99.90
37788;DHT22;23627;53.302;-6.362;2023-04-28T12:54:58;18.00;99.90
37788;DHT22;23627;53.302;-6.362;2023-04-28T12:57:24;17.90;99.90
37788;DHT22;23627;53.302;-6.362;2023-04-28T12:59:50;17.80;99.90
37788;DHT22;23627;53.302;-6.362;2023-04-28T13:02:17;17.70;99.90
37788;DHT22;23627;53.302;-6.362;2023-04-28T13:04:43;17.60;99.90
37788;DHT22;23627;53.302;-6.362;2023-04-28T13:07:16;17.50;99.90
37788;DHT22;23627;53.302;-6.362;2023-04-28T13:09:42;17.50;99.90
37788;DHT22;23627;53.302;-6.362;2023-04-28T13:12:09;17.50;99.90
37788;DHT22;23627;53.302;-6.362;2023-04-28T13:14:36;17.50;99.90
37788;DHT22;23627;53.302;-6.362;2023-04-28T13:17:02;17.60;99.90
37788;DHT22;23627;53.302;-6.362;2023-04-28T13:19:28;17.80;99.90
37788;DHT22;23627;53.302;-6.362;2023-04-28T13:21:55;17.90;99.90
37788;DHT22;23627;53.302;-6.362;2023-04-28T13:24:21;18.10;99.90
37788;DHT22;23627;53.302;-6.362;2023-04-28T13:26:47;18.20;99.90
37788;DHT22;23627;53.302;-6.362;2023-04-28T13:29:13;18.30;99.90
37788;DHT22;23627;53.302;-6.362;2023-04-28T13:31:39;18.50;99.90
37788;DHT22;23627;53.302;-6.362;2023-04-28T13:34:05;18.50;99.90
37788;DHT22;23627;53.302;-6.362;2023-04-28T13:36:32;18.60;99.90
37788;DHT22;23627;53.302;-6.362;2023-04-28T13:38:58;18.60;99.90
37788;DHT22;23627;53.302;-6.362;2023-04-28T13:41:25;18.70;99.90
37788;DHT22;23627;53.302;-6.362;2023-04-28T13:43:52;18.80;99.90
37788;DHT22;23627;53.302;-6.362;2023-04-28T13:46:18;18.80;99.90
37788;DHT22;23627;53.302;-6.362;2023-04-28T13:48:44;18.90;99.90
37788;DHT22;23627;53.302;-6.362;2023-04-28T13:51:10;19.10;99.90
37788;DHT22;23627;53.302;-6.362;2023-04-28T13:53:37;19.30;99.90
37788;DHT22;23627;53.302;-6.362;2023-04-28T13:56:04;19.30;99.90
37788;DHT22;23627;53.302;-6.362;2023-04-28T13:58:31;19.30;99.90
37788;DHT22;23627;53.302;-6.362;2023-04-28T14:00:57;19.30;99.90
37788;DHT22;23627;53.302;-6.362;2023-04-28T14:03:24;19.20;99.90
37788;DHT22;23627;53.302;-6.362;2023-04-28T14:05:51;19.10;99.90
37788;DHT22;23627;53.302;-6.362;2023-04-28T14:08:17;19.00;99.90
37788;DHT22;23627;53.302;-6.362;2023-04-28T14:10:43;18.90;99.90
37788;DHT22;23627;53.302;-6.362;2023-04-28T14:13:09;18.80;99.90
37788;DHT22;23627;53.302;-6.362;2023-04-28T14:15:35;18.80;99.90
37788;DHT22;23627;53.302;-6.362;2023-04-28T14:18:02;18.80;99.90
37788;DHT22;23627;53.302;-6.362;2023-04-28T14:20:27;18.80;99.90
37788;DHT22;23627;53.302;-6.362;2023-04-28T14:22:53;18.80;99.90
37788;DHT22;23627;53.302;-6.362;2023-04-28T14:25:19;18.80;99.90
37788;DHT22;23627;53.302;-6.362;2023-04-28T14:27:48;18.70;99.90
37788;DHT22;23627;53.302;-6.362;2023-04-28T14:30:15;18.60;99.90
37788;DHT22;23627;53.302;-6.362;2023-04-28T14:32:41;18.60;99.90
37788;DHT22;23627;53.302;-6.362;2023-04-28T14:35:07;18.60;99.90
37788;DHT22;23627;53.302;-6.362;2023-04-28T14:37:33;18.60;99.90
37788;DHT22;23627;53.302;-6.362;2023-04-28T14:40:00;18.70;99.90
37788;DHT22;23627;53.302;-6.362;2023-04-28T14:42:31;18.70;99.90
37788;DHT22;23627;53.302;-6.362;2023-04-28T14:45:08;18.80;99.90
37788;DHT22;23627;53.302;-6.362;2023-04-28T14:47:35;18.80;99.90
37788;DHT22;23627;53.302;-6.362;2023-04-28T14:50:02;18.90;99.90
37788;DHT22;23627;53.302;-6.362;2023-04-28T14:52:28;18.90;99.90
37788;DHT22;23627;53.302;-6.362;2023-04-28T14:54:55;18.90;99.90
37788;DHT22;23627;53.302;-6.362;2023-04-28T14:57:22;19.00;99.90
37788;DHT22;23627;53.302;-6.362;2023-04-28T14:59:48;19.00;99.90
37788;DHT22;23627;53.302;-6.362;2023-04-28T15:02:16;19.10;99.90
37788;DHT22;23627;53.302;-6.362;2023-04-28T15:04:43;19.10;99.90
37788;DHT22;23627;53.302;-6.362;2023-04-28T15:07:10;19.20;99.90
37788;DHT22;23627;53.302;-6.362;2023-04-28T15:09:37;19.20;99.90
37788;DHT22;23627;53.302;-6.362;2023-04-28T15:12:03;19.20;99.90
37788;DHT22;23627;53.302;-6.362;2023-04-28T15:14:29;19.20;99.90
37788;DHT22;23627;53.302;-6.362;2023-04-28T15:16:55;19.20;99.90
37788;DHT22;23627;53.302;-6.362;2023-04-28T15:19:21;19.30;99.90
37788;DHT22;23627;53.302;-6.362;2023-04-28T15:21:47;19.30;99.90
37788;DHT22;23627;53.302;-6.362;2023-04-28T15:24:14;19.30;99.90
37788;DHT22;23627;53.302;-6.362;2023-04-28T15:26:40;19.40;99.90
37788;DHT22;23627;53.302;-6.362;2023-04-28T15:29:06;19.30;99.90
37788;DHT22;23627;53.302;-6.362;2023-04-28T15:31:32;19.30;99.90
37788;DHT22;23627;53.302;-6.362;2023-04-28T15:33:57;19.30;99.90
37788;DHT22;23627;53.302;-6.362;2023-04-28T15:36:23;19.30;99.90
37788;DHT22;23627;53.302;-6.362;2023-04-28T15:38:49;19.30;99.90
37788;DHT22;23627;53.302;-6.362;2023-04-28T15:41:16;19.30;99.90
37788;DHT22;23627;53.302;-6.362;2023-04-28T15:43:43;19.30;99.90
37788;DHT22;23627;53.302;-6.362;2023-04-28T15:46:12;19.30;99.90